sensor_id;sensor_type;location;lat;lon;timestamp;temperature;humidity
19538;DHT22;9914;51.008;4.300;2023-04-01T00:00:46;10.80;99.90
19538;DHT22;9914;51.008;4.300;2023-04-01T00:03:12;10.80;99.90
19538;DHT22;9914;51.008;4.300;2023-04-01T00:05:38;10.80;99.90
19538;DHT22;9914;51.008;4.300;2023-04-01T00:08:04;10.80;99.90
19538;DHT22;9914;51.008;4.300;2023-04-01T00:10:30;10.90;99.90
19538;DHT22;9914;51.008;4.300;2023-04-01T00:12:55;10.90;99.90
19538;DHT22;9914;51.008;4.300;2023-04-01T00:15:21;10.90;99.90
19538;DHT22;9914;51.008;4.300;2023-04-01T00:17:47;10.80;99.90
19538;DHT22;9914;51.008;4.300;2023-04-01T00:20:12;11.00;99.90
19538;DHT22;9914;51.008;4.300;2023-04-01T00:22:40;11.00;99.90
19538;DHT22;9914;51.008;4.300;2023-04-01T00:25:06;11.00;99.90
19538;DHT22;9914;51.008;4.300;2023-04-01T00:27:32;11.10;99.90
19538;DHT22;9914;51.008;4.300;2023-04-01T00:29:57;11.00;99.90
19538;DHT22;9914;51.008;4.300;2023-04-01T00:32:23;11.10;99.90
19538;DHT22;9914;51.008;4.300;2023-04-01T00:34:52;11.00;99.90
19538;DHT22;9914;51.008;4.300;2023-04-01T00:37:19;11.00;99.90
19538;DHT22;9914;51.008;4.300;2023-04-01T00:39:45;10.90;99.90
19538;DHT22;9914;51.008;4.300;2023-04-01T00:42:11;11.00;99.90
19538;DHT22;9914;51.008;4.300;2023-04-01T00:44:38;10.90;99.90
19538;DHT22;9914;51.008;4.300;2023-04-01T00:47:04;11.00;99.90
19538;DHT22;9914;51.008;4.300;2023-04-01T00:49:42;11.00;99.90
19538;DHT22;9914;51.008;4.300;2023-04-01T00:52:13;11.00;99.90
19538;DHT22;9914;51.008;4.300;2023-04-01T00:54:41;11.10;99.90
19538;DHT22;9914;51.008;4.300;2023-04-01T00:57:08;11.20;99.90
19538;DHT22;9914;51.008;4.300;2023-04-01T00:59:46;11.00;99.90
19538;DHT22;9914;51.008;4.300;2023-04-01T01:02:14;11.10;99.90
19538;DHT22;9914;51.008;4.300;2023-04-01T01:04:40;11.10;99.90
19538;DHT22;9914;51.008;4.300;2023-04-01T01:15:32;11.10;99.90
19538;DHT22;9914;51.008;4.300;2023-04-01T01:20:54;11.10;99.90
19538;DHT22;9914;51.008;4.300;2023-04-01T01:31:37;11.20;99.90
19538;DHT22;9914;51.008;4.300;2023-04-01T01:36:38;11.20;99.90
19538;DHT22;9914;51.008;4.300;2023-04-01T01:39:05;11.20;99.90
19538;DHT22;9914;51.008;4.300;2023-04-01T01:41:32;11.20;99.90
19538;DHT22;9914;51.008;4.300;2023-04-01T01:43:59;11.20;99.90
19538;DHT22;9914;51.008;4.300;2023-04-01T01:46:28;11.10;99.90
19538;DHT22;9914;51.008;4.300;2023-04-01T01:48:56;11.00;99.90
19538;DHT22;9914;51.008;4.300;2023-04-01T01:51:23;10.90;99.90
19538;DHT22;9914;51.008;4.300;2023-04-01T01:53:49;10.80;99.90
19538;DHT22;9914;51.008;4.300;2023-04-01T01:56:18;10.90;99.90
19538;DHT22;9914;51.008;4.300;2023-04-01T01:58:51;10.80;99.90
19538;DHT22;9914;51.008;4.300;2023-04-01T02:01:21;10.80;99.90
19538;DHT22;9914;51.008;4.300;2023-04-01T02:03:49;10.80;99.90
19538;DHT22;9914;51.008;4.300;2023-04-01T02:06:18;10.70;99.90
19538;DHT22;9914;51.008;4.300;2023-04-01T02:08:54;10.80;99.90
19538;DHT22;9914;51.008;4.300;2023-04-01T02:11:27;10.70;99.90
19538;DHT22;9914;51.008;4.300;2023-04-01T02:14:04;10.80;99.90
19538;DHT22;9914;51.008;4.300;2023-04-01T02:16:53;10.80;99.90
19538;DHT22;9914;51.008;4.300;2023-04-01T02:19:33;10.70;99.90
19538;DHT22;9914;51.008;4.300;2023-04-01T02:22:02;10.70;99.90
19538;DHT22;9914;51.008;4.300;2023-04-01T02:24:30;10.60;99.90
19538;DHT22;9914;51.008;4.300;2023-04-01T02:26:56;10.60;99.90
19538;DHT22;9914;51.008;4.300;2023-04-01T02:29:23;10.70;99.90
19538;DHT22;9914;51.008;4.300;2023-04-01T02:31:51;10.70;99.90
19538;DHT22;9914;51.008;4.300;2023-04-01T02:34:19;10.70;99.90
19538;DHT22;9914;51.008;4.300;2023-04-01T02:36:45;10.60;99.90
19538;DHT22;9914;51.008;4.300;2023-04-01T02:39:13;10.60;99.90
19538;DHT22;9914;51.008;4.300;2023-04-01T02:41:43;10.60;99.90
19538;DHT22;9914;51.008;4.300;2023-04-01T02:44:10;10.70;99.90
19538;DHT22;9914;51.008;4.300;2023-04-01T02:46:36;10.80;99.90
19538;DHT22;9914;51.008;4.300;2023-04-01T02:49:02;10.70;99.90
19538;DHT22;9914;51.008;4.300;2023-04-01T02:51:28;10.70;99.90
19538;DHT22;9914;51.008;4.300;2023-04-01T02:53:54;10.80;99.90
19538;DHT22;9914;51.008;4.300;2023-04-01T02:56:19;10.70;99.90
19538;DHT22;9914;51.008;4.300;2023-04-01T02:58:46;10.70;99.90
19538;DHT22;9914;51.008;4.300;2023-04-01T03:01:11;10.70;99.90
19538;DHT22;9914;51.008;4.300;2023-04-01T03:03:37;10.70;99.90
19538;DHT22;9914;51.008;4.300;2023-04-01T03:06:07;10.70;99.90
19538;DHT22;9914;51.008;4.300;2023-04-01T03:08:33;10.70;99.90
19538;DHT22;9914;51.008;4.300;2023-04-01T03:10:58;10.70;99.90
19538;DHT22;9914;51.008;4.300;2023-04-01T03:13:24;10.70;99.90
19538;DHT22;9914;51.008;4.300;2023-04-01T03:15:50;10.70;99.90
19538;DHT22;9914;51.008;4.300;2023-04-01T03:18:15;10.70;99.90
19538;DHT22;9914;51.008;4.300;2023-04-01T03:20:41;10.70;99.90
19538;DHT22;9914;51.008;4.300;2023-04-01T03:23:07;10.70;99.90
19538;DHT22;9914;51.008;4.300;2023-04-01T03:25:33;10.60;99.90
19538;DHT22;9914;51.008;4.300;2023-04-01T03:27:59;10.70;99.90
19538;DHT22;9914;51.008;4.300;2023-04-01T03:30:26;10.60;99.90
19538;DHT22;9914;51.008;4.300;2023-04-01T03:32:52;10.60;99.90
19538;DHT22;9914;51.008;4.300;2023-04-01T03:35:18;10.50;99.90
19538;DHT22;9914;51.008;4.300;2023-04-01T03:37:43;10.50;99.90
19538;DHT22;9914;51.008;4.300;2023-04-01T03:40:09;10.50;99.90
19538;DHT22;9914;51.008;4.300;2023-04-01T03:42:35;10.60;99.90
19538;DHT22;9914;51.008;4.300;2023-04-01T03:45:02;10.50;99.90
19538;DHT22;9914;51.008;4.300;2023-04-01T03:47:28;10.40;99.90
19538;DHT22;9914;51.008;4.300;2023-04-01T03:49:53;10.50;99.90
19538;DHT22;9914;51.008;4.300;2023-04-01T03:52:19;10.50;99.90
19538;DHT22;9914;51.008;4.300;2023-04-01T03:54:45;10.40;99.90
19538;DHT22;9914;51.008;4.300;2023-04-01T03:57:10;10.40;99.90
19538;DHT22;9914;51.008;4.300;2023-04-01T03:59:36;10.40;99.90
19538;DHT22;9914;51.008;4.300;2023-04-01T04:02:02;10.40;99.90
19538;DHT22;9914;51.008;4.300;2023-04-01T04:04:28;10.50;99.90
19538;DHT22;9914;51.008;4.300;2023-04-01T04:06:54;10.50;99.90
19538;DHT22;9914;51.008;4.300;2023-04-01T04:09:20;10.60;99.90
19538;DHT22;9914;51.008;4.300;2023-04-01T04:11:46;10.60;99.90
19538;DHT22;9914;51.008;4.300;2023-04-01T04:14:11;10.50;99.90
19538;DHT22;9914;51.008;4.300;2023-04-01T04:16:37;10.50;99.90
19538;DHT22;9914;51.008;4.300;2023-04-01T04:19:03;10.40;99.90
19538;DHT22;9914;51.008;4.300;2023-04-01T04:21:29;10.40;99.90
19538;DHT22;9914;51.008;4.300;2023-04-01T04:23:55;10.50;99.90
19538;DHT22;9914;51.008;4.300;2023-04-01T04:26:21;10.50;99.90
19538;DHT22;9914;51.008;4.300;2023-04-01T04:28:47;10.50;99.90
19538;DHT22;9914;51.008;4.300;2023-04-01T04:31:21;10.50;99.90
19538;DHT22;9914;51.008;4.300;2023-04-01T04:33:47;10.50;99.90
19538;DHT22;9914;51.008;4.300;2023-04-01T04:36:14;10.40;99.90
19538;DHT22;9914;51.008;4.300;2023-04-01T04:38:39;10.40;99.90
19538;DHT22;9914;51.008;4.300;2023-04-01T04:41:12;10.50;99.90
19538;DHT22;9914;51.008;4.300;2023-04-01T04:43:39;10.50;99.90
19538;DHT22;9914;51.008;4.300;2023-04-01T04:46:07;10.50;99.90
19538;DHT22;9914;51.008;4.300;2023-04-01T04:48:33;10.40;99.90
19538;DHT22;9914;51.008;4.300;2023-04-01T04:50:58;10.30;99.90
19538;DHT22;9914;51.008;4.300;2023-04-01T04:53:24;10.30;99.90
19538;DHT22;9914;51.008;4.300;2023-04-01T04:55:51;10.30;99.90
19538;DHT22;9914;51.008;4.300;2023-04-01T04:58:17;10.30;99.90
19538;DHT22;9914;51.008;4.300;2023-04-01T05:00:43;10.40;99.90
19538;DHT22;9914;51.008;4.300;2023-04-01T05:03:09;10.40;99.90
19538;DHT22;9914;51.008;4.300;2023-04-01T05:05:36;10.60;99.90
19538;DHT22;9914;51.008;4.300;2023-04-01T05:08:02;10.60;99.90
19538;DHT22;9914;51.008;4.300;2023-04-01T05:10:28;10.50;99.90
19538;DHT22;9914;51.008;4.300;2023-04-01T05:12:54;10.40;99.90
19538;DHT22;9914;51.008;4.300;2023-04-01T05:15:20;10.30;99.90
19538;DHT22;9914;51.008;4.300;2023-04-01T05:17:46;10.30;99.90
19538;DHT22;9914;51.008;4.300;2023-04-01T05:20:12;10.30;99.90
19538;DHT22;9914;51.008;4.300;2023-04-01T05:22:38;10.30;99.90
19538;DHT22;9914;51.008;4.300;2023-04-01T05:25:04;10.30;99.90
19538;DHT22;9914;51.008;4.300;2023-04-01T05:27:30;10.30;99.90
19538;DHT22;9914;51.008;4.300;2023-04-01T05:29:57;10.20;99.90
19538;DHT22;9914;51.008;4.300;2023-04-01T05:32:22;10.20;99.90
19538;DHT22;9914;51.008;4.300;2023-04-01T05:34:51;10.20;99.90
19538;DHT22;9914;51.008;4.300;2023-04-01T05:37:17;10.20;99.90
19538;DHT22;9914;51.008;4.300;2023-04-01T05:39:42;10.20;99.90
19538;DHT22;9914;51.008;4.300;2023-04-01T05:42:08;10.30;99.90
19538;DHT22;9914;51.008;4.300;2023-04-01T05:44:35;10.40;99.90
19538;DHT22;9914;51.008;4.300;2023-04-01T05:47:01;10.40;99.90
19538;DHT22;9914;51.008;4.300;2023-04-01T05:49:27;10.40;99.90
19538;DHT22;9914;51.008;4.300;2023-04-01T05:51:53;10.50;99.90
19538;DHT22;9914;51.008;4.300;2023-04-01T05:54:19;10.50;99.90
19538;DHT22;9914;51.008;4.300;2023-04-01T05:56:44;10.50;99.90
19538;DHT22;9914;51.008;4.300;2023-04-01T05:59:11;10.60;99.90
19538;DHT22;9914;51.008;4.300;2023-04-01T06:01:37;10.60;99.90
19538;DHT22;9914;51.008;4.300;2023-04-01T06:04:02;10.60;99.90
19538;DHT22;9914;51.008;4.300;2023-04-01T06:06:30;10.50;99.90
19538;DHT22;9914;51.008;4.300;2023-04-01T06:09:06;10.30;99.90
19538;DHT22;9914;51.008;4.300;2023-04-01T06:17:03;10.00;99.90
19538;DHT22;9914;51.008;4.300;2023-04-01T06:19:50;10.00;99.90
19538;DHT22;9914;51.008;4.300;2023-04-01T06:25:36;10.10;99.90
19538;DHT22;9914;51.008;4.300;2023-04-01T06:30:43;10.10;99.90
19538;DHT22;9914;51.008;4.300;2023-04-01T06:33:26;10.10;99.90
19538;DHT22;9914;51.008;4.300;2023-04-01T06:54:42;9.90;99.90
19538;DHT22;9914;51.008;4.300;2023-04-01T06:57:43;10.00;99.90
19538;DHT22;9914;51.008;4.300;2023-04-01T07:00:19;10.10;99.90
19538;DHT22;9914;51.008;4.300;2023-04-01T07:03:02;10.10;99.90
19538;DHT22;9914;51.008;4.300;2023-04-01T07:05:31;10.20;99.90
19538;DHT22;9914;51.008;4.300;2023-04-01T07:08:00;10.30;99.90
19538;DHT22;9914;51.008;4.300;2023-04-01T07:13:36;10.30;99.90
19538;DHT22;9914;51.008;4.300;2023-04-01T07:21:52;10.30;99.90
19538;DHT22;9914;51.008;4.300;2023-04-01T07:24:32;10.40;99.90
19538;DHT22;9914;51.008;4.300;2023-04-01T07:26:59;10.60;99.90
19538;DHT22;9914;51.008;4.300;2023-04-01T07:29:25;10.60;99.90
19538;DHT22;9914;51.008;4.300;2023-04-01T07:43:24;10.40;99.90
19538;DHT22;9914;51.008;4.300;2023-04-01T07:45:54;10.60;99.90
19538;DHT22;9914;51.008;4.300;2023-04-01T07:51:02;10.80;99.90
19538;DHT22;9914;51.008;4.300;2023-04-01T07:53:53;10.70;99.90
19538;DHT22;9914;51.008;4.300;2023-04-01T07:59:23;10.70;99.90
19538;DHT22;9914;51.008;4.300;2023-04-01T08:11:01;10.80;99.90
19538;DHT22;9914;51.008;4.300;2023-04-01T08:21:57;10.80;99.90
19538;DHT22;9914;51.008;4.300;2023-04-01T08:24:34;10.80;99.90
19538;DHT22;9914;51.008;4.300;2023-04-01T08:27:06;10.70;99.90
19538;DHT22;9914;51.008;4.300;2023-04-01T08:29:41;10.60;99.90
19538;DHT22;9914;51.008;4.300;2023-04-01T08:32:16;10.60;99.90
19538;DHT22;9914;51.008;4.300;2023-04-01T08:34:47;10.60;99.90
19538;DHT22;9914;51.008;4.300;2023-04-01T08:37:14;10.80;99.90
19538;DHT22;9914;51.008;4.300;2023-04-01T08:45:28;11.10;99.90
19538;DHT22;9914;51.008;4.300;2023-04-01T08:48:21;11.20;99.90
19538;DHT22;9914;51.008;4.300;2023-04-01T08:51:19;11.20;99.90
19538;DHT22;9914;51.008;4.300;2023-04-01T08:56:42;11.50;99.90
19538;DHT22;9914;51.008;4.300;2023-04-01T08:59:32;11.50;99.90
19538;DHT22;9914;51.008;4.300;2023-04-01T09:02:51;11.50;99.90
19538;DHT22;9914;51.008;4.300;2023-04-01T09:05:06;11.50;99.90
19538;DHT22;9914;51.008;4.300;2023-04-01T09:19:03;11.50;99.90
19538;DHT22;9914;51.008;4.300;2023-04-01T09:27:04;11.30;99.90
19538;DHT22;9914;51.008;4.300;2023-04-01T09:46:24;11.20;99.90
19538;DHT22;9914;51.008;4.300;2023-04-01T09:49:43;11.20;99.90
19538;DHT22;9914;51.008;4.300;2023-04-01T10:01:05;11.60;99.90
19538;DHT22;9914;51.008;4.300;2023-04-01T10:17:53;12.10;99.90
19538;DHT22;9914;51.008;4.300;2023-04-01T10:20:54;12.10;99.90
19538;DHT22;9914;51.008;4.300;2023-04-01T10:26:25;12.20;99.90
19538;DHT22;9914;51.008;4.300;2023-04-01T10:29:21;12.40;99.90
19538;DHT22;9914;51.008;4.300;2023-04-01T10:32:12;12.20;99.90
19538;DHT22;9914;51.008;4.300;2023-04-01T10:40:40;11.50;99.90
19538;DHT22;9914;51.008;4.300;2023-04-01T10:51:55;11.50;99.90
19538;DHT22;9914;51.008;4.300;2023-04-01T10:54:48;11.50;99.90
19538;DHT22;9914;51.008;4.300;2023-04-01T10:57:32;11.60;99.90
19538;DHT22;9914;51.008;4.300;2023-04-01T11:00:28;11.80;99.90
19538;DHT22;9914;51.008;4.300;2023-04-01T11:09:19;12.10;99.90
19538;DHT22;9914;51.008;4.300;2023-04-01T11:17:27;11.90;99.90
19538;DHT22;9914;51.008;4.300;2023-04-01T11:33:49;11.70;99.90
19538;DHT22;9914;51.008;4.300;2023-04-01T11:39:20;12.10;99.90
19538;DHT22;9914;51.008;4.300;2023-04-01T11:44:39;12.50;99.90
19538;DHT22;9914;51.008;4.300;2023-04-01T11:47:45;12.50;99.90
19538;DHT22;9914;51.008;4.300;2023-04-01T11:50:21;12.50;99.90
19538;DHT22;9914;51.008;4.300;2023-04-01T11:53:00;12.50;99.90
19538;DHT22;9914;51.008;4.300;2023-04-01T12:08:47;12.00;99.90
19538;DHT22;9914;51.008;4.300;2023-04-01T12:14:14;11.90;99.90
19538;DHT22;9914;51.008;4.300;2023-04-01T12:16:55;11.70;99.90
19538;DHT22;9914;51.008;4.300;2023-04-01T12:27:38;12.00;99.90
19538;DHT22;9914;51.008;4.300;2023-04-01T12:30:33;12.10;99.90
19538;DHT22;9914;51.008;4.300;2023-04-01T12:36:23;12.00;99.90
19538;DHT22;9914;51.008;4.300;2023-04-01T12:44:33;12.10;99.90
19538;DHT22;9914;51.008;4.300;2023-04-01T12:47:25;12.10;99.90
19538;DHT22;9914;51.008;4.300;2023-04-01T12:50:16;12.20;99.90
19538;DHT22;9914;51.008;4.300;2023-04-01T12:55:43;12.10;99.90
19538;DHT22;9914;51.008;4.300;2023-04-01T13:15:28;11.60;99.90
19538;DHT22;9914;51.008;4.300;2023-04-01T13:23:30;11.80;99.90
19538;DHT22;9914;51.008;4.300;2023-04-01T13:28:53;12.00;99.90
19538;DHT22;9914;51.008;4.300;2023-04-01T13:34:30;11.90;99.90
19538;DHT22;9914;51.008;4.300;2023-04-01T13:37:22;12.00;99.90
19538;DHT22;9914;51.008;4.300;2023-04-01T13:42:59;12.00;99.90
19538;DHT22;9914;51.008;4.300;2023-04-01T13:45:38;11.80;99.90
19538;DHT22;9914;51.008;4.300;2023-04-01T13:48:45;11.90;99.90
19538;DHT22;9914;51.008;4.300;2023-04-01T13:57:00;11.80;99.90
19538;DHT22;9914;51.008;4.300;2023-04-01T13:59:47;11.80;99.90
19538;DHT22;9914;51.008;4.300;2023-04-01T14:10:43;12.00;99.90
19538;DHT22;9914;51.008;4.300;2023-04-01T14:16:10;12.10;99.90
19538;DHT22;9914;51.008;4.300;2023-04-01T14:24:24;13.00;99.90
19538;DHT22;9914;51.008;4.300;2023-04-01T14:27:08;12.90;99.90
19538;DHT22;9914;51.008;4.300;2023-04-01T14:49:13;12.60;99.90
19538;DHT22;9914;51.008;4.300;2023-04-01T14:51:41;12.50;99.90
19538;DHT22;9914;51.008;4.300;2023-04-01T14:54:30;12.10;99.90
19538;DHT22;9914;51.008;4.300;2023-04-01T14:57:10;12.20;99.90
19538;DHT22;9914;51.008;4.300;2023-04-01T14:59:41;11.90;99.90
19538;DHT22;9914;51.008;4.300;2023-04-01T15:13:24;11.80;99.90
19538;DHT22;9914;51.008;4.300;2023-04-01T15:24:22;11.90;99.90
19538;DHT22;9914;51.008;4.300;2023-04-01T15:32:31;11.70;99.90
19538;DHT22;9914;51.008;4.300;2023-04-01T15:37:56;11.70;99.90
19538;DHT22;9914;51.008;4.300;2023-04-01T15:40:28;11.70;99.90
19538;DHT22;9914;51.008;4.300;2023-04-01T15:45:31;11.80;99.90
19538;DHT22;9914;51.008;4.300;2023-04-01T16:01:59;11.50;99.90
19538;DHT22;9914;51.008;4.300;2023-04-01T16:04:42;11.50;99.90
19538;DHT22;9914;51.008;4.300;2023-04-01T16:07:41;11.40;99.90
19538;DHT22;9914;51.008;4.300;2023-04-01T16:21:35;11.30;99.90
19538;DHT22;9914;51.008;4.300;2023-04-01T16:24:15;11.10;99.90
19538;DHT22;9914;51.008;4.300;2023-04-01T16:27:00;11.00;99.90
19538;DHT22;9914;51.008;4.300;2023-04-01T16:32:37;10.80;99.90
19538;DHT22;9914;51.008;4.300;2023-04-01T16:41:57;11.10;99.90
19538;DHT22;9914;51.008;4.300;2023-04-01T16:44:20;11.20;99.90
19538;DHT22;9914;51.008;4.300;2023-04-01T16:46:55;11.30;99.90
19538;DHT22;9914;51.008;4.300;2023-04-01T16:49:42;11.20;99.90
19538;DHT22;9914;51.008;4.300;2023-04-01T16:54:53;11.00;99.90
19538;DHT22;9914;51.008;4.300;2023-04-01T16:57:35;11.10;99.90
19538;DHT22;9914;51.008;4.300;2023-04-01T17:00:17;11.20;99.90
19538;DHT22;9914;51.008;4.300;2023-04-01T17:08:29;10.90;99.90
19538;DHT22;9914;51.008;4.300;2023-04-01T17:11:00;10.90;99.90
19538;DHT22;9914;51.008;4.300;2023-04-01T17:13:46;10.80;99.90
19538;DHT22;9914;51.008;4.300;2023-04-01T17:33:20;10.80;99.90
19538;DHT22;9914;51.008;4.300;2023-04-01T17:42:05;10.90;99.90
19538;DHT22;9914;51.008;4.300;2023-04-01T17:44:38;10.80;99.90
19538;DHT22;9914;51.008;4.300;2023-04-01T17:50:24;10.80;99.90
19538;DHT22;9914;51.008;4.300;2023-04-01T17:59:22;10.70;99.90
19538;DHT22;9914;51.008;4.300;2023-04-01T18:18:55;10.60;99.90
19538;DHT22;9914;51.008;4.300;2023-04-01T18:21:40;10.50;99.90
19538;DHT22;9914;51.008;4.300;2023-04-01T18:26:42;10.40;99.90
19538;DHT22;9914;51.008;4.300;2023-04-01T18:32:07;10.40;99.90
19538;DHT22;9914;51.008;4.300;2023-04-01T18:34:43;10.30;99.90
19538;DHT22;9914;51.008;4.300;2023-04-01T18:39:57;10.50;99.90
19538;DHT22;9914;51.008;4.300;2023-04-01T18:50:47;10.40;99.90
19538;DHT22;9914;51.008;4.300;2023-04-01T18:53:24;10.40;99.90
19538;DHT22;9914;51.008;4.300;2023-04-01T18:56:10;10.20;99.90
19538;DHT22;9914;51.008;4.300;2023-04-01T19:06:34;10.20;99.90
19538;DHT22;9914;51.008;4.300;2023-04-01T19:20:56;10.30;99.90
19538;DHT22;9914;51.008;4.300;2023-04-01T19:26:42;10.30;99.90
19538;DHT22;9914;51.008;4.300;2023-04-01T19:29:49;10.20;99.90
19538;DHT22;9914;51.008;4.300;2023-04-01T19:35:26;10.00;99.90
19538;DHT22;9914;51.008;4.300;2023-04-01T19:38:20;10.10;99.90
19538;DHT22;9914;51.008;4.300;2023-04-01T19:40:53;10.00;99.90
19538;DHT22;9914;51.008;4.300;2023-04-01T19:43:38;9.90;99.90
19538;DHT22;9914;51.008;4.300;2023-04-01T19:49:32;10.00;99.90
19538;DHT22;9914;51.008;4.300;2023-04-01T19:59:45;10.00;99.90
19538;DHT22;9914;51.008;4.300;2023-04-01T20:02:50;10.10;99.90
19538;DHT22;9914;51.008;4.300;2023-04-01T20:05:36;10.00;99.90
19538;DHT22;9914;51.008;4.300;2023-04-01T20:10:46;10.10;99.90
19538;DHT22;9914;51.008;4.300;2023-04-01T20:13:40;10.00;99.90
19538;DHT22;9914;51.008;4.300;2023-04-01T20:16:09;10.20;99.90
19538;DHT22;9914;51.008;4.300;2023-04-01T20:19:00;10.20;99.90
19538;DHT22;9914;51.008;4.300;2023-04-01T20:21:38;10.20;99.90
19538;DHT22;9914;51.008;4.300;2023-04-01T20:26:41;10.10;99.90
19538;DHT22;9914;51.008;4.300;2023-04-01T20:45:42;10.30;99.90
19538;DHT22;9914;51.008;4.300;2023-04-01T20:48:20;10.20;99.90
19538;DHT22;9914;51.008;4.300;2023-04-01T20:50:56;10.30;99.90
19538;DHT22;9914;51.008;4.300;2023-04-01T20:59:37;10.50;99.90
19538;DHT22;9914;51.008;4.300;2023-04-01T21:10:59;10.30;99.90
19538;DHT22;9914;51.008;4.300;2023-04-01T21:16:14;10.00;99.90
19538;DHT22;9914;51.008;4.300;2023-04-01T21:21:38;9.70;99.90
19538;DHT22;9914;51.008;4.300;2023-04-01T21:26:46;9.60;99.90
19538;DHT22;9914;51.008;4.300;2023-04-01T21:35:05;9.50;99.90
19538;DHT22;9914;51.008;4.300;2023-04-01T21:43:18;9.70;99.90
19538;DHT22;9914;51.008;4.300;2023-04-01T21:46:11;9.60;99.90
19538;DHT22;9914;51.008;4.300;2023-04-01T21:48:49;9.60;99.90
19538;DHT22;9914;51.008;4.300;2023-04-01T21:57:38;9.60;99.90
19538;DHT22;9914;51.008;4.300;2023-04-01T22:08:35;9.60;99.90
19538;DHT22;9914;51.008;4.300;2023-04-01T22:19:11;9.50;99.90
19538;DHT22;9914;51.008;4.300;2023-04-01T22:21:56;9.50;99.90
19538;DHT22;9914;51.008;4.300;2023-04-01T22:24:46;9.40;99.90
19538;DHT22;9914;51.008;4.300;2023-04-01T22:29:48;9.60;99.90
19538;DHT22;9914;51.008;4.300;2023-04-01T22:41:17;9.50;99.90
19538;DHT22;9914;51.008;4.300;2023-04-01T22:43:47;9.50;99.90
19538;DHT22;9914;51.008;4.300;2023-04-01T22:46:37;9.50;99.90
19538;DHT22;9914;51.008;4.300;2023-04-01T22:49:20;9.50;99.90
19538;DHT22;9914;51.008;4.300;2023-04-01T22:51:57;9.50;99.90
19538;DHT22;9914;51.008;4.300;2023-04-01T22:54:46;9.60;99.90
19538;DHT22;9914;51.008;4.300;2023-04-01T22:57:35;9.60;99.90
19538;DHT22;9914;51.008;4.300;2023-04-01T23:02:39;9.60;99.90
19538;DHT22;9914;51.008;4.300;2023-04-01T23:05:12;9.70;99.90
19538;DHT22;9914;51.008;4.300;2023-04-01T23:08:00;9.70;99.90
19538;DHT22;9914;51.008;4.300;2023-04-01T23:10:42;9.60;99.90
19538;DHT22;9914;51.008;4.300;2023-04-01T23:13:16;9.60;99.90
19538;DHT22;9914;51.008;4.300;2023-04-01T23:15:43;9.80;99.90
19538;DHT22;9914;51.008;4.300;2023-04-01T23:18:22;9.60;99.90
19538;DHT22;9914;51.008;4.300;2023-04-01T23:23:45;9.30;99.90
19538;DHT22;9914;51.008;4.300;2023-04-01T23:26:39;9.30;99.90
19538;DHT22;9914;51.008;4.300;2023-04-01T23:29:14;9.30;99.90
19538;DHT22;9914;51.008;4.300;2023-04-01T23:31:44;9.30;99.90
19538;DHT22;9914;51.008;4.300;2023-04-01T23:36:45;9.30;99.90
19538;DHT22;9914;51.008;4.300;2023-04-01T23:41:51;9.20;99.90
19538;DHT22;9914;51.008;4.300;2023-04-01T23:44:19;9.30;99.90
19538;DHT22;9914;51.008;4.300;2023-04-01T23:46:47;9.20;99.90
19538;DHT22;9914;51.008;4.300;2023-04-01T23:49:17;9.20;99.90
19538;DHT22;9914;51.008;4.300;2023-04-01T23:51:55;9.30;99.90
19538;DHT22;9914;51.008;4.300;2023-04-01T23:54:30;9.30;99.90
19538;DHT22;9914;51.008;4.300;2023-04-01T23:56:57;9.30;99.90
19538;DHT22;9914;51.008;4.300;2023-04-01T23:59:32;9.20;99.90
